Time;durP1;ratioP1;P1;durP2;ratioP2;P2;SDS_P1;SDS_P2;PMS_P1;PMS_P2;Temp;Humidity;BMP_temperature;BMP_pressure;BME280_temperature;BME280_humidity;BME280_pressure;Samples;Min_cycle;Max_cycle;Signal;HPM_P1;HPM_P2
2020/12/13 00:00:36;;;;;;;43.20;17.88;;;;;;;7.21;100.00;100554.09;4988254;28;20555;-72
2020/12/13 00:03:02;;;;;;;39.28;19.05;;;;;;;7.24;100.00;100558.31;4990114;28;20037;-72
2020/12/13 00:05:28;;;;;;;44.10;17.95;;;;;;;7.32;100.00;100561.03;4998799;28;20026;-72
2020/12/13 00:07:54;;;;;;;47.88;19.42;;;;;;;7.24;100.00;100560.97;5006551;28;20029;-72
2020/12/13 00:10:21;;;;;;;43.05;18.73;;;;;;;7.25;100.00;100559.97;5007484;28;20504;-72
2020/12/13 00:12:46;;;;;;;41.78;18.45;;;;;;;7.35;100.00;100562.59;5003370;28;20113;-72
2020/12/13 00:15:12;;;;;;;44.05;19.05;;;;;;;7.26;100.00;100556.31;4989196;28;20064;-72
2020/12/13 00:17:38;;;;;;;46.55;18.35;;;;;;;7.26;100.00;100550.97;4988331;28;20126;-72
2020/12/13 00:20:05;;;;;;;47.67;19.08;;;;;;;7.27;100.00;100563.31;4988186;28;20061;-72
2020/12/13 00:22:30;;;;;;;36.33;17.45;;;;;;;7.24;100.00;100566.31;4993293;28;20033;-72
2020/12/13 00:24:56;;;;;;;44.53;18.60;;;;;;;7.25;100.00;100568.81;5008636;28;20025;-72
2020/12/13 00:27:22;;;;;;;37.67;17.38;;;;;;;7.25;100.00;100573.31;5004080;28;20444;-72
2020/12/13 00:29:48;;;;;;;42.63;17.42;;;;;;;7.22;100.00;100570.94;4989703;28;20141;-72
2020/12/13 00:32:13;;;;;;;49.30;19.63;;;;;;;7.37;100.00;100581.94;4989716;28;20524;-72
2020/12/13 00:34:39;;;;;;;47.95;17.73;;;;;;;7.36;100.00;100583.78;4998656;28;20088;-72
2020/12/13 00:37:05;;;;;;;43.20;17.52;;;;;;;7.31;100.00;100588.72;4995057;28;20120;-72
2020/12/13 00:39:31;;;;;;;48.53;17.50;;;;;;;7.26;100.00;100583.00;5009532;28;20132;-71
2020/12/13 00:41:56;;;;;;;41.13;18.42;;;;;;;7.31;100.00;100595.91;5008595;28;20113;-72
2020/12/13 00:44:22;;;;;;;42.95;17.75;;;;;;;7.36;100.00;100590.94;5008705;28;20079;-72
2020/12/13 00:46:48;;;;;;;48.55;17.08;;;;;;;7.25;100.00;100597.34;4977697;28;20081;-72
2020/12/13 00:49:14;;;;;;;46.25;16.67;;;;;;;7.26;100.00;100604.34;4989111;28;20050;-72
2020/12/13 00:51:41;;;;;;;46.95;16.90;;;;;;;7.30;100.00;100611.06;4971659;28;20034;-72
2020/12/13 00:54:06;;;;;;;37.22;15.93;;;;;;;7.18;100.00;100609.63;5000358;28;20125;-72
2020/12/13 00:56:32;;;;;;;46.80;17.30;;;;;;;7.20;100.00;100615.63;5008431;28;20125;-71
2020/12/13 00:58:57;;;;;;;49.05;16.63;;;;;;;7.16;100.00;100617.75;5009019;28;20120;-71
2020/12/13 01:01:23;;;;;;;56.92;16.63;;;;;;;7.18;100.00;100618.47;5001502;28;20062;-72
2020/12/13 01:03:48;;;;;;;37.30;15.70;;;;;;;7.16;100.00;100622.25;4989881;28;20455;-72
2020/12/13 01:06:24;;;;;;;43.25;15.77;;;;;;;7.22;100.00;100627.81;4988260;28;20026;-72
2020/12/13 01:08:51;;;;;;;45.13;14.38;;;;;;;7.16;100.00;100631.09;5000840;28;20022;-71
2020/12/13 01:11:24;;;;;;;40.17;14.77;;;;;;;7.17;100.00;100635.44;5000327;28;20027;-71
2020/12/13 01:13:50;;;;;;;42.15;13.98;;;;;;;7.18;100.00;100633.63;4997949;28;20038;-71
2020/12/13 01:16:17;;;;;;;41.47;15.05;;;;;;;7.11;100.00;100645.88;4988787;28;20089;-71
2020/12/13 01:18:43;;;;;;;39.15;14.60;;;;;;;7.10;100.00;100646.84;5001942;28;20054;-71
2020/12/13 01:21:14;;;;;;;41.97;14.88;;;;;;;7.06;100.00;100651.66;4989660;28;20047;-71
2020/12/13 01:23:39;;;;;;;43.75;15.77;;;;;;;7.01;100.00;100657.41;4989576;28;20026;-71
2020/12/13 01:26:05;;;;;;;36.10;15.95;;;;;;;7.06;100.00;100656.97;4989047;28;20368;-71
2020/12/13 01:28:31;;;;;;;42.20;16.80;;;;;;;7.01;100.00;100662.75;5001643;28;20398;-71
2020/12/13 01:30:56;;;;;;;49.92;18.27;;;;;;;7.00;100.00;100669.09;4998132;28;20028;-71
2020/12/13 01:33:21;;;;;;;46.25;17.48;;;;;;;7.01;100.00;100675.25;4999463;28;20438;-72
2020/12/13 01:35:47;;;;;;;53.53;17.35;;;;;;;6.96;100.00;100667.69;5006080;28;20033;-71
2020/12/13 01:38:12;;;;;;;47.40;17.58;;;;;;;6.98;100.00;100678.25;5004313;28;20398;-71
2020/12/13 01:40:38;;;;;;;40.13;17.70;;;;;;;6.96;100.00;100678.34;4999114;28;20157;-71
2020/12/13 01:43:03;;;;;;;50.03;18.08;;;;;;;6.90;100.00;100680.78;4994579;28;20037;-71
2020/12/13 01:45:29;;;;;;;49.15;18.58;;;;;;;6.94;100.00;100691.00;4987483;28;20054;-71
2020/12/13 01:47:55;;;;;;;45.22;18.30;;;;;;;6.96;100.00;100688.19;4985709;28;20038;-72
2020/12/13 01:50:54;;;;;;;56.38;18.58;;;;;;;6.87;100.00;100686.41;4999661;28;20018;-71
2020/12/13 01:53:17;;;;;;;39.70;16.90;;;;;;;6.82;100.00;100691.31;4998244;28;20029;-72
2020/12/13 01:55:44;;;;;;;50.58;17.75;;;;;;;6.77;100.00;100697.09;5001618;28;20041;-72
2020/12/13 01:58:16;;;;;;;46.47;18.10;;;;;;;6.71;100.00;100713.69;4995307;28;20445;-72
2020/12/13 02:00:46;;;;;;;39.97;17.20;;;;;;;6.67;100.00;100709.63;4998910;28;20125;-72
2020/12/13 02:03:19;;;;;;;41.17;18.15;;;;;;;6.69;100.00;100707.66;5019377;28;20395;-72
2020/12/13 02:05:50;;;;;;;40.63;16.15;;;;;;;6.69;100.00;100705.84;5002129;28;20022;-72
2020/12/13 02:08:21;;;;;;;44.75;16.90;;;;;;;6.67;100.00;100709.63;5011708;28;20398;-72
2020/12/13 02:10:47;;;;;;;44.40;17.08;;;;;;;6.64;100.00;100709.91;4995915;28;20122;-72
2020/12/13 02:13:25;;;;;;;43.17;17.17;;;;;;;6.62;100.00;100706.53;4991756;28;20045;-72
2020/12/13 02:16:06;;;;;;;40.15;15.10;;;;;;;6.66;100.00;100705.28;4976848;28;20085;-72
2020/12/13 02:18:32;;;;;;;36.95;15.00;;;;;;;6.60;100.00;100717.34;5004020;28;20521;-72
2020/12/13 02:21:06;;;;;;;46.17;14.80;;;;;;;6.53;100.00;100718.94;4978965;28;20042;-72
2020/12/13 02:23:47;;;;;;;34.28;14.38;;;;;;;6.52;100.00;100721.72;5005908;28;20424;-71
2020/12/13 02:26:15;;;;;;;37.05;14.13;;;;;;;6.55;100.00;100719.63;5012110;28;20044;-72
2020/12/13 02:28:42;;;;;;;51.60;13.93;;;;;;;6.54;100.00;100719.75;4996429;28;20038;-72
2020/12/13 02:31:08;;;;;;;38.22;13.27;;;;;;;6.55;100.00;100716.09;4992454;28;20441;-72
2020/12/13 02:33:36;;;;;;;40.33;11.88;;;;;;;6.49;100.00;100721.03;4998508;28;20041;-71
2020/12/13 02:36:03;;;;;;;32.15;12.85;;;;;;;6.49;100.00;100713.03;5001446;28;20030;-72
2020/12/13 02:38:30;;;;;;;35.90;12.05;;;;;;;6.46;100.00;100726.63;5008750;28;20030;-72
2020/12/13 02:40:56;;;;;;;25.92;11.35;;;;;;;6.47;100.00;100724.81;4991842;28;20030;-72
2020/12/13 02:43:23;;;;;;;29.27;11.52;;;;;;;6.40;100.00;100724.53;5004720;28;20100;-72
2020/12/13 02:45:49;;;;;;;29.85;10.57;;;;;;;6.37;100.00;100735.47;4992549;28;20474;-72
2020/12/13 02:48:15;;;;;;;33.80;10.25;;;;;;;6.39;100.00;100733.53;5004153;28;20125;-72
2020/12/13 02:50:41;;;;;;;27.13;11.13;;;;;;;6.37;100.00;100740.81;4991844;28;20169;-72
2020/12/13 02:53:07;;;;;;;31.67;9.38;;;;;;;6.32;100.00;100748.38;4994028;28;20252;-72
2020/12/13 02:55:32;;;;;;;25.80;9.57;;;;;;;6.30;100.00;100745.03;5002600;28;20027;-72
2020/12/13 02:58:03;;;;;;;39.58;10.35;;;;;;;6.32;100.00;100737.72;5004216;28;20100;-72
2020/12/13 03:00:30;;;;;;;30.35;9.25;;;;;;;6.33;100.00;100749.25;4990693;28;20406;-72
2020/12/13 03:02:55;;;;;;;32.95;9.70;;;;;;;6.31;100.00;100757.34;4991084;28;20069;-72
2020/12/13 03:05:22;;;;;;;34.38;8.88;;;;;;;6.28;100.00;100752.34;4991497;28;20031;-72
2020/12/13 03:07:47;;;;;;;26.50;8.05;;;;;;;6.33;100.00;100760.75;5003835;28;20438;-72
2020/12/13 03:10:13;;;;;;;35.47;8.55;;;;;;;6.38;100.00;100760.31;5000072;28;20022;-72
2020/12/13 03:12:39;;;;;;;21.90;8.15;;;;;;;6.35;100.00;100755.25;4994860;28;20470;-72
2020/12/13 03:15:05;;;;;;;24.13;8.05;;;;;;;6.32;100.00;100759.03;5004299;28;20100;-72
2020/12/13 03:17:30;;;;;;;24.42;8.70;;;;;;;6.31;100.00;100764.50;5007441;28;20060;-72
2020/12/13 03:19:56;;;;;;;22.13;8.30;;;;;;;6.38;100.00;100761.16;5000394;28;20029;-72
2020/12/13 03:22:21;;;;;;;20.83;7.55;;;;;;;6.31;100.00;100764.50;5007854;28;20320;-72
2020/12/13 03:24:47;;;;;;;28.52;7.15;;;;;;;6.34;100.00;100758.91;5000363;28;20030;-72
2020/12/13 03:27:13;;;;;;;26.08;7.40;;;;;;;6.40;100.00;100767.19;5007811;28;20041;-72
2020/12/13 03:29:39;;;;;;;23.13;7.03;;;;;;;6.35;100.00;100769.44;4999663;28;20034;-72
2020/12/13 03:32:05;;;;;;;24.70;6.97;;;;;;;6.41;100.00;100778.69;4994400;28;20526;-72
2020/12/13 03:34:31;;;;;;;27.42;6.82;;;;;;;6.38;100.00;100778.97;4990824;28;20420;-72
2020/12/13 03:36:56;;;;;;;23.42;7.18;;;;;;;6.35;100.00;100774.75;5003545;28;20045;-72
2020/12/13 03:39:22;;;;;;;64.30;20.48;;;;;;;6.31;100.00;100777.84;4998819;28;20041;-72
2020/12/13 03:41:48;;;;;;;27.48;9.23;;;;;;;6.33;100.00;100774.06;4996502;28;20038;-72
2020/12/13 03:44:13;;;;;;;30.90;12.15;;;;;;;6.33;100.00;100784.72;5009811;28;20163;-72
2020/12/13 03:46:40;;;;;;;31.80;9.75;;;;;;;6.45;100.00;100788.06;4983461;28;20056;-72
2020/12/13 03:49:06;;;;;;;19.45;6.72;;;;;;;6.34;100.00;100782.91;5010280;28;20053;-72
2020/12/13 03:51:31;;;;;;;21.92;7.70;;;;;;;6.36;100.00;100795.09;4996691;28;20025;-72
2020/12/13 03:53:57;;;;;;;30.23;7.78;;;;;;;6.30;100.00;100790.31;5001468;28;20571;-72
2020/12/13 03:56:22;;;;;;;26.40;6.70;;;;;;;6.29;100.00;100796.63;4993940;28;20084;-72
2020/12/13 03:58:48;;;;;;;17.85;6.65;;;;;;;6.26;100.00;100801.41;4999050;28;20112;-72
2020/12/13 04:01:13;;;;;;;25.30;5.85;;;;;;;6.28;100.00;100797.63;4996466;28;20030;-72
2020/12/13 04:03:39;;;;;;;26.80;6.53;;;;;;;6.27;100.00;100797.75;5009419;28;20033;-72
2020/12/13 04:06:04;;;;;;;16.92;6.15;;;;;;;6.27;100.00;100811.06;4993752;28;20033;-72
2020/12/13 04:08:30;;;;;;;20.15;6.18;;;;;;;6.26;100.00;100807.56;4998545;28;20042;-72
2020/12/13 04:10:56;;;;;;;15.30;5.90;;;;;;;6.34;100.00;100812.22;4992998;28;20031;-72
2020/12/13 04:13:22;;;;;;;27.60;6.03;;;;;;;6.28;100.00;100816.28;4998690;28;20104;-72
2020/12/13 04:15:48;;;;;;;18.92;6.53;;;;;;;6.29;100.00;100817.94;4989906;28;20046;-72
2020/12/13 04:18:14;;;;;;;13.52;5.65;;;;;;;6.33;100.00;100819.38;4989841;28;20443;-72
2020/12/13 04:20:40;;;;;;;17.85;5.72;;;;;;;6.34;100.00;100823.69;5001814;28;20033;-72
2020/12/13 04:23:05;;;;;;;21.85;5.82;;;;;;;6.28;100.00;100826.09;4998750;28;20088;-72
2020/12/13 04:25:31;;;;;;;19.40;5.40;;;;;;;6.31;100.00;100833.78;4994223;28;20034;-72
2020/12/13 04:27:57;;;;;;;18.08;5.60;;;;;;;6.37;100.00;100842.06;4997587;28;20068;-72
2020/12/13 04:30:22;;;;;;;20.23;4.82;;;;;;;6.36;100.00;100848.38;4996314;28;20352;-72
2020/12/13 04:32:48;;;;;;;20.70;5.07;;;;;;;6.35;100.00;100845.84;5008181;28;20132;-71
2020/12/13 04:35:14;;;;;;;13.43;5.60;;;;;;;6.46;100.00;100849.22;4991080;28;20038;-72
2020/12/13 04:37:39;;;;;;;29.42;16.33;;;;;;;6.46;100.00;100857.22;5001714;28;20045;-72
2020/12/13 04:40:05;;;;;;;37.00;18.88;;;;;;;6.42;100.00;100858.47;4989197;28;20041;-72
2020/12/13 04:42:36;;;;;;;19.55;7.28;;;;;;;6.37;100.00;100858.03;4989999;28;20037;-72
2020/12/13 04:45:07;;;;;;;24.13;5.78;;;;;;;6.35;100.00;100854.69;4985715;28;20138;-72
2020/12/13 04:47:33;;;;;;;19.95;7.18;;;;;;;6.33;100.00;100858.50;4978783;28;20031;-72
2020/12/13 04:50:04;;;;;;;21.60;5.78;;;;;;;6.31;100.00;100863.09;4991421;28;20048;-72
2020/12/13 04:52:31;;;;;;;22.48;6.55;;;;;;;6.30;100.00;100866.75;4997859;28;20450;-72
2020/12/13 04:54:56;;;;;;;20.17;5.65;;;;;;;6.28;100.00;100860.72;5005858;28;20026;-72
2020/12/13 04:57:22;;;;;;;14.25;4.93;;;;;;;6.29;100.00;100863.25;4997542;28;20404;-72
2020/12/13 04:59:49;;;;;;;28.55;6.85;;;;;;;6.28;100.00;100868.72;4993263;28;20034;-72
2020/12/13 05:02:16;;;;;;;22.40;5.68;;;;;;;6.22;100.00;100876.28;4994773;28;20513;-72
2020/12/13 05:04:42;;;;;;;23.10;5.57;;;;;;;6.20;100.00;100870.22;5003614;28;20084;-72
2020/12/13 05:07:09;;;;;;;28.20;5.97;;;;;;;6.25;100.00;100869.81;5003484;28;20038;-72
2020/12/13 05:09:35;;;;;;;10.85;4.95;;;;;;;6.18;100.00;100876.69;4982170;28;20033;-72
2020/12/13 05:12:00;;;;;;;18.60;5.03;;;;;;;6.20;100.00;100874.72;5011928;28;20379;-72
2020/12/13 05:14:27;;;;;;;14.38;6.07;;;;;;;6.15;100.00;100876.97;5003687;28;20118;-72
2020/12/13 05:17:08;;;;;;;17.50;5.68;;;;;;;6.13;100.00;100873.59;4992880;28;20026;-72
2020/12/13 05:19:33;;;;;;;17.10;5.63;;;;;;;6.13;100.00;100871.78;5000272;28;20510;-72
2020/12/13 05:22:00;;;;;;;19.55;5.28;;;;;;;6.13;100.00;100870.94;4999106;28;20049;-72
2020/12/13 05:24:26;;;;;;;17.00;5.35;;;;;;;6.11;100.00;100876.38;4993055;28;20061;-72
2020/12/13 05:27:01;;;;;;;22.88;5.53;;;;;;;6.05;100.00;100870.75;5005562;28;20033;-72
2020/12/13 05:29:29;;;;;;;16.10;5.85;;;;;;;6.04;100.00;100872.59;4989662;28;20030;-72
2020/12/13 05:32:07;;;;;;;24.15;5.28;;;;;;;6.05;100.00;100871.59;4997613;28;20033;-72
2020/12/13 05:34:33;;;;;;;16.25;5.38;;;;;;;6.03;100.00;100870.91;5003051;28;20038;-72
2020/12/13 05:36:58;;;;;;;16.00;5.50;;;;;;;6.02;100.00;100881.69;4995261;28;20038;-72
2020/12/13 05:39:24;;;;;;;23.35;6.20;;;;;;;6.00;100.00;100884.50;4993439;28;20027;-72
2020/12/13 05:41:51;;;;;;;23.83;5.45;;;;;;;5.98;100.00;100883.78;4992526;28;20046;-72
2020/12/13 05:44:41;;;;;;;20.10;5.72;;;;;;;5.92;100.00;100885.19;4993311;28;20034;-72
2020/12/13 05:49:55;;;;;;;19.30;6.55;;;;;;;5.92;100.00;100876.31;5005949;28;20037;-72
2020/12/13 05:52:20;;;;;;;18.13;5.88;;;;;;;5.87;100.00;100876.72;4998069;28;20028;-72
2020/12/13 05:54:47;;;;;;;20.02;5.43;;;;;;;5.88;100.00;100881.06;4988466;28;20030;-72
2020/12/13 05:57:13;;;;;;;26.52;6.10;;;;;;;5.83;100.00;100879.78;5001769;28;20037;-72
2020/12/13 05:59:39;;;;;;;18.55;5.07;;;;;;;5.83;100.00;100879.78;4998873;28;20036;-71
2020/12/13 06:02:10;;;;;;;14.68;5.32;;;;;;;5.83;100.00;100877.13;5008313;28;20069;-71
2020/12/13 06:04:41;;;;;;;18.30;6.38;;;;;;;5.83;100.00;100880.63;4998233;28;20030;-72
2020/12/13 06:07:08;;;;;;;24.40;5.95;;;;;;;5.80;100.00;100883.53;4996241;28;20034;-72
2020/12/13 06:09:36;;;;;;;20.50;5.22;;;;;;;5.80;100.00;100890.69;4991528;28;20416;-72
2020/12/13 06:12:05;;;;;;;22.00;6.28;;;;;;;5.79;100.00;100879.22;5002694;28;20061;-72
2020/12/13 06:14:33;;;;;;;20.00;7.28;;;;;;;5.74;100.00;100886.75;5004999;28;20040;-72
2020/12/13 06:17:01;;;;;;;23.20;6.95;;;;;;;5.71;100.00;100884.34;5009619;28;20026;-72
2020/12/13 06:19:29;;;;;;;23.10;6.53;;;;;;;5.69;100.00;100894.28;5010487;28;20034;-72
2020/12/13 06:21:56;;;;;;;21.40;6.78;;;;;;;5.66;100.00;100892.72;4999300;28;20034;-72
2020/12/13 06:24:22;;;;;;;31.77;6.47;;;;;;;5.66;100.00;100886.56;4994060;28;20342;-72
2020/12/13 06:26:49;;;;;;;14.65;6.05;;;;;;;5.62;100.00;100888.66;4980899;28;20030;-72
2020/12/13 06:29:15;;;;;;;20.30;7.82;;;;;;;5.59;100.00;100894.25;4998571;28;20124;-72
2020/12/13 06:31:41;;;;;;;24.67;6.88;;;;;;;5.56;100.00;100894.50;5011662;28;20492;-73
2020/12/13 06:34:08;;;;;;;19.92;6.35;;;;;;;5.56;100.00;100891.84;5005907;28;20038;-72
2020/12/13 06:36:36;;;;;;;26.73;7.40;;;;;;;5.55;100.00;100899.97;5011571;28;20030;-72
2020/12/13 06:39:06;;;;;;;20.95;6.20;;;;;;;5.50;100.00;100895.03;4985901;28;20556;-72
2020/12/13 06:41:34;;;;;;;21.10;7.35;;;;;;;5.44;100.00;100891.09;4996950;28;20038;-72
2020/12/13 06:44:03;;;;;;;22.88;6.75;;;;;;;5.39;100.00;100890.66;4999767;28;20038;-72
2020/12/13 06:46:29;;;;;;;23.25;6.95;;;;;;;5.31;100.00;100895.75;4996557;28;20399;-72
2020/12/13 06:48:57;;;;;;;29.98;10.57;;;;;;;5.24;100.00;100896.44;4998760;28;20120;-72
2020/12/13 06:51:27;;;;;;;28.40;9.48;;;;;;;5.12;100.00;100896.50;4998162;28;20058;-72
2020/12/13 06:53:54;;;;;;;27.05;8.05;;;;;;;4.99;100.00;100898.50;4993116;28;20120;-72
2020/12/13 06:56:20;;;;;;;32.17;12.43;;;;;;;4.88;100.00;100901.22;4991534;28;20397;-72
2020/12/13 06:58:55;;;;;;;22.80;7.75;;;;;;;4.76;100.00;100911.03;5006528;28;20030;-72
2020/12/13 07:01:23;;;;;;;27.93;8.90;;;;;;;4.64;100.00;100904.09;4995208;28;20446;-73
2020/12/13 07:03:49;;;;;;;27.67;7.72;;;;;;;4.55;100.00;100918.97;5009984;28;20303;-72
2020/12/13 07:06:19;;;;;;;25.02;8.38;;;;;;;4.51;100.00;100920.19;4997465;28;20029;-72
2020/12/13 07:08:48;;;;;;;23.17;7.68;;;;;;;4.40;100.00;100913.09;5011049;28;20040;-72
2020/12/13 07:11:14;;;;;;;29.75;8.85;;;;;;;4.33;100.00;100917.25;5004877;28;20026;-72
2020/12/13 07:13:43;;;;;;;26.75;8.60;;;;;;;4.25;100.00;100919.66;5000115;28;20033;-72
2020/12/13 07:16:15;;;;;;;26.00;9.05;;;;;;;4.20;100.00;100918.34;5008917;28;20398;-72
2020/12/13 07:18:46;;;;;;;33.25;8.93;;;;;;;4.14;100.00;100922.34;4997678;28;20026;-72
2020/12/13 07:21:14;;;;;;;37.50;9.02;;;;;;;4.13;100.00;100934.78;4978637;28;20739;-72
2020/12/13 07:23:40;;;;;;;31.83;8.68;;;;;;;4.21;100.00;100941.28;5003667;28;20470;-72
2020/12/13 07:26:06;;;;;;;28.58;7.15;;;;;;;4.31;100.00;100937.75;4999136;28;20551;-71
2020/12/13 07:28:33;;;;;;;22.63;6.45;;;;;;;4.45;100.00;100943.78;4996036;28;20092;-72
2020/12/13 07:31:03;;;;;;;27.50;8.20;;;;;;;4.49;100.00;100945.22;5010755;28;20250;-72
2020/12/13 07:33:29;;;;;;;21.10;5.93;;;;;;;4.50;100.00;100942.44;5002486;28;20061;-73
2020/12/13 07:35:56;;;;;;;22.08;5.82;;;;;;;4.52;100.00;100952.91;4998795;28;20104;-72
2020/12/13 07:38:22;;;;;;;17.08;5.68;;;;;;;4.52;100.00;100944.94;5007102;28;20144;-71
2020/12/13 07:40:48;;;;;;;30.05;6.25;;;;;;;4.52;100.00;100952.91;4990492;28;20042;-70
2020/12/13 07:43:14;;;;;;;28.33;6.00;;;;;;;4.58;100.00;100955.94;4990179;28;20026;-71
2020/12/13 07:45:40;;;;;;;27.13;5.68;;;;;;;4.62;100.00;100948.56;4990432;28;20065;-71
2020/12/13 07:48:06;;;;;;;22.25;5.60;;;;;;;4.64;100.00;100943.97;5002278;28;20117;-71
2020/12/13 07:50:42;;;;;;;25.05;5.72;;;;;;;4.64;100.00;100954.59;4997980;28;20394;-70
2020/12/13 07:53:08;;;;;;;21.98;5.53;;;;;;;4.65;100.00;100959.78;4992975;28;20611;-70
2020/12/13 07:55:33;;;;;;;20.20;5.40;;;;;;;4.66;100.00;100953.47;5000213;28;20104;-70
2020/12/13 07:58:00;;;;;;;21.73;5.75;;;;;;;4.67;100.00;100951.69;4993598;28;20407;-70
2020/12/13 08:00:25;;;;;;;29.40;7.05;;;;;;;4.67;100.00;100971.13;4972654;28;20165;-70
2020/12/13 08:02:56;;;;;;;19.80;5.72;;;;;;;4.71;100.00;100971.72;4991817;28;20128;-70
2020/12/13 08:05:28;;;;;;;26.45;6.35;;;;;;;4.76;100.00;100984.63;5000088;28;20038;-71
2020/12/13 08:07:59;;;;;;;20.83;6.28;;;;;;;4.81;100.00;100983.28;5007137;28;20030;-70
2020/12/13 08:10:28;;;;;;;21.40;6.53;;;;;;;4.89;100.00;100996.78;4996350;28;20036;-70
2020/12/13 08:12:54;;;;;;;21.17;6.43;;;;;;;4.97;100.00;100993.53;4993009;28;20034;-71
2020/12/13 08:15:20;;;;;;;22.83;7.05;;;;;;;5.03;100.00;100997.50;4992344;28;20165;-70
2020/12/13 08:18:02;;;;;;;24.60;6.43;;;;;;;5.12;100.00;101000.22;5007014;28;20120;-71
2020/12/13 08:20:31;;;;;;;23.35;7.28;;;;;;;5.18;100.00;101002.38;4995063;28;20129;-71
2020/12/13 08:23:02;;;;;;;25.00;8.85;;;;;;;5.26;100.00;101001.72;4996601;28;20064;-70
2020/12/13 08:25:29;;;;;;;23.38;7.65;;;;;;;5.37;100.00;101001.69;4994624;28;20034;-70
2020/12/13 08:27:57;;;;;;;27.75;7.80;;;;;;;5.43;100.00;101009.16;4988020;28;20133;-71
2020/12/13 08:30:25;;;;;;;25.70;7.53;;;;;;;5.49;100.00;100999.81;4988867;28;20387;-70
2020/12/13 08:32:50;;;;;;;23.33;6.32;;;;;;;5.57;100.00;101012.44;4972038;28;20035;-70
2020/12/13 08:35:18;;;;;;;22.05;7.15;;;;;;;5.69;100.00;101014.06;5004542;28;20168;-71
2020/12/13 08:37:58;;;;;;;16.75;6.20;;;;;;;5.72;100.00;101017.34;5008369;28;20121;-70
2020/12/13 08:40:34;;;;;;;22.88;6.32;;;;;;;5.75;100.00;101018.88;5007320;28;20072;-70
2020/12/13 08:43:00;;;;;;;18.98;6.60;;;;;;;5.77;100.00;101022.22;5008719;28;20045;-70
2020/12/13 08:45:26;;;;;;;25.77;6.05;;;;;;;5.87;100.00;101025.81;5001117;28;20374;-70
2020/12/13 08:47:58;;;;;;;20.65;6.57;;;;;;;5.88;100.00;101027.50;5001430;28;20041;-70
2020/12/13 08:50:24;;;;;;;22.70;6.47;;;;;;;5.97;100.00;101032.09;5001227;28;20022;-71
2020/12/13 08:52:49;;;;;;;15.50;5.75;;;;;;;5.99;100.00;101023.09;4993822;28;20483;-70
2020/12/13 08:55:25;;;;;;;15.90;5.78;;;;;;;6.15;100.00;101026.13;4988959;28;20034;-70
2020/12/13 08:57:57;;;;;;;;;;;;;;;6.18;100.00;101028.53;5003888;28;20042;-70
2020/12/13 09:00:24;;;;;;;22.42;5.88;;;;;;;6.24;100.00;101033.31;5008178;28;19924;-70
2020/12/13 09:02:59;;;;;;;18.85;5.80;;;;;;;6.40;100.00;101036.31;4989758;28;20366;-70
2020/12/13 09:05:26;;;;;;;28.35;6.50;;;;;;;6.53;100.00;101033.44;4997956;28;20034;-69
2020/12/13 09:07:53;;;;;;;24.55;6.93;;;;;;;6.61;100.00;101046.06;4992836;28;20112;-70
2020/12/13 09:10:20;;;;;;;18.38;6.00;;;;;;;6.62;100.00;101045.09;4994655;28;20062;-70
2020/12/13 09:12:47;;;;;;;18.33;5.63;;;;;;;6.72;100.00;101044.13;4989645;28;20038;-70
2020/12/13 09:15:14;;;;;;;30.30;5.88;;;;;;;6.71;100.00;101042.44;5000212;28;20030;-69
2020/12/13 09:17:40;;;;;;;22.52;5.35;;;;;;;6.71;100.00;101045.13;5003696;28;20038;-70
2020/12/13 09:20:07;;;;;;;18.77;4.80;;;;;;;6.62;100.00;101053.09;4989262;28;20026;-70
2020/12/13 09:22:32;;;;;;;18.10;5.30;;;;;;;6.61;100.00;101051.41;4989256;28;20039;-70
2020/12/13 09:24:58;;;;;;;22.67;5.63;;;;;;;6.54;100.00;101051.13;4983211;28;20045;-70
2020/12/13 09:27:25;;;;;;;15.93;5.10;;;;;;;6.54;100.00;101044.94;5007281;28;20052;-71
2020/12/13 09:29:51;;;;;;;15.82;5.18;;;;;;;6.45;100.00;101055.41;5008378;28;20026;-70
2020/12/13 09:32:19;;;;;;;20.10;5.60;;;;;;;6.30;100.00;101059.44;5007305;28;20038;-70
2020/12/13 09:34:45;;;;;;;18.08;5.15;;;;;;;6.31;100.00;101055.78;5003159;28;20068;-70
2020/12/13 09:37:14;;;;;;;25.92;6.15;;;;;;;6.18;100.00;101060.50;4989941;28;20026;-70
2020/12/13 09:39:40;;;;;;;16.63;5.95;;;;;;;6.12;100.00;101058.34;4996108;28;20050;-70
2020/12/13 09:42:06;;;;;;;19.95;5.60;;;;;;;6.00;100.00;101060.25;4993606;28;20069;-70
2020/12/13 09:44:32;;;;;;;19.27;6.35;;;;;;;5.94;100.00;101064.28;5008403;28;20034;-70
2020/12/13 09:46:59;;;;;;;14.65;5.72;;;;;;;5.89;100.00;101066.47;4993677;28;20428;-70
2020/12/13 09:49:26;;;;;;;17.42;6.28;;;;;;;5.86;100.00;101065.88;4996174;28;20030;-70
2020/12/13 09:51:56;;;;;;;21.50;6.40;;;;;;;5.84;100.00;101063.34;4987722;28;20045;-70
2020/12/13 09:54:23;;;;;;;20.48;7.35;;;;;;;5.86;100.00;101058.72;5003922;28;20037;-70
2020/12/13 09:56:48;;;;;;;23.98;6.10;;;;;;;5.87;100.00;101056.91;5011085;28;20139;-70
2020/12/13 09:59:14;;;;;;;22.25;6.65;;;;;;;5.88;100.00;101059.47;4999091;28;20379;-70
2020/12/13 10:01:39;;;;;;;18.27;5.75;;;;;;;5.90;100.00;101060.16;4997343;28;20042;-70
2020/12/13 10:04:05;;;;;;;18.35;5.75;;;;;;;5.94;100.00;101055.47;4998910;28;20034;-70
2020/12/13 10:09:06;;;;;;;18.13;5.70;;;;;;;5.99;100.00;101061.25;4991613;28;20062;-69
2020/12/13 10:11:32;;;;;;;;;;;;;;;6.08;100.00;101054.28;4980240;28;20169;-70
2020/12/13 10:13:58;;;;;;;19.67;5.78;;;;;;;6.06;100.00;101053.56;4999792;28;19913;-70
2020/12/13 10:16:25;;;;;;;22.98;6.20;;;;;;;6.07;100.00;101052.56;4991274;28;20045;-70
2020/12/13 10:18:51;;;;;;;16.45;5.25;;;;;;;6.06;100.00;101056.22;5005637;28;20060;-70
2020/12/13 10:21:21;;;;;;;21.98;5.72;;;;;;;6.07;100.00;101044.59;5003723;28;20656;-70
2020/12/13 10:23:47;;;;;;;18.50;6.60;;;;;;;6.12;100.00;101042.38;4992733;28;20047;-70
2020/12/13 10:26:12;;;;;;;19.17;6.20;;;;;;;6.19;100.00;101046.19;5011254;28;20026;-70
2020/12/13 10:28:39;;;;;;;22.50;5.78;;;;;;;6.28;100.00;101044.56;5010367;28;20034;-70
2020/12/13 10:31:04;;;;;;;14.93;5.10;;;;;;;6.34;100.00;101044.88;5011360;28;20386;-70
2020/12/13 10:33:30;;;;;;;13.85;4.65;;;;;;;6.41;100.00;101046.00;5003447;28;20026;-70
2020/12/13 10:35:55;;;;;;;22.15;5.93;;;;;;;6.43;100.00;101048.56;4991718;28;20038;-70
2020/12/13 10:38:21;;;;;;;15.88;4.43;;;;;;;6.39;100.00;101050.63;5004578;28;20026;-70
2020/12/13 10:40:46;;;;;;;15.18;4.68;;;;;;;6.48;100.00;101041.84;5003451;28;20030;-70
2020/12/13 10:43:12;;;;;;;18.17;4.95;;;;;;;6.48;100.00;101046.34;4991158;28;20415;-70
2020/12/13 10:45:37;;;;;;;19.65;4.85;;;;;;;6.50;100.00;101044.34;4985785;28;20069;-70
2020/12/13 10:48:03;;;;;;;18.35;5.53;;;;;;;6.56;100.00;101040.31;5005042;28;20104;-70
2020/12/13 10:50:37;;;;;;;12.73;4.13;;;;;;;6.50;100.00;101036.38;5010724;28;20022;-70
2020/12/13 10:53:04;;;;;;;15.30;5.32;;;;;;;6.52;100.00;101033.56;4996666;28;20037;-70
2020/12/13 10:55:30;;;;;;;14.57;4.88;;;;;;;6.56;100.00;101032.31;5010412;28;20033;-71
2020/12/13 10:57:55;;;;;;;17.20;4.22;;;;;;;6.60;100.00;101031.06;5009848;28;20036;-70
2020/12/13 11:00:23;;;;;;;16.58;4.70;;;;;;;6.62;100.00;101031.75;5001535;28;20491;-70
2020/12/13 11:02:50;;;;;;;14.60;5.60;;;;;;;6.71;100.00;101021.13;5002782;28;20034;-70
2020/12/13 11:05:15;;;;;;;18.90;5.03;;;;;;;6.76;100.00;101026.03;5000444;28;20121;-70
2020/12/13 11:07:41;;;;;;;18.25;5.00;;;;;;;6.82;100.00;101028.16;5006519;28;20129;-70
2020/12/13 11:10:07;;;;;;;12.45;4.70;;;;;;;6.81;100.00;101023.81;4999990;28;20035;-70
2020/12/13 11:12:32;;;;;;;14.43;4.63;;;;;;;6.91;100.00;101027.34;5006918;28;20080;-70
2020/12/13 11:14:57;;;;;;;12.20;4.20;;;;;;;6.74;100.00;101023.53;5006688;28;20045;-70
2020/12/13 11:17:23;;;;;;;16.80;4.22;;;;;;;6.78;100.00;101032.09;4994014;28;20055;-70
2020/12/13 11:19:48;;;;;;;14.48;4.78;;;;;;;6.74;100.00;101022.69;4999962;28;20033;-70